createdAt,value
2024-02-15T00:01:06.858Z,57.63
2024-02-15T00:03:35.821Z,72.30
2024-02-15T00:06:03.341Z,63.30
2024-02-15T00:08:31.126Z,58.13
2024-02-15T00:10:58.070Z,65.15
2024-02-15T00:13:25.017Z,49.47
2024-02-15T00:15:51.953Z,45.72
2024-02-15T00:18:19.768Z,66.15
2024-02-15T00:20:46.891Z,59.70
2024-02-15T00:23:13.710Z,48.63
2024-02-15T00:25:44.633Z,43.05
2024-02-15T00:28:13.635Z,46.13
2024-02-15T00:30:40.999Z,54.35
2024-02-15T00:33:09.111Z,53.28
2024-02-15T00:35:36.908Z,42.70
2024-02-15T00:38:04.688Z,50.40
2024-02-15T00:40:31.575Z,53.20
2024-02-15T00:42:58.551Z,60.72
2024-02-15T00:45:26.066Z,57.80
2024-02-15T00:47:53.198Z,58.53
2024-02-15T00:50:20.426Z,69.50
2024-02-15T00:52:47.488Z,60.42
2024-02-15T00:55:15.588Z,66.25
2024-02-15T00:57:42.637Z,61.42
2024-02-15T01:00:10.858Z,61.08
2024-02-15T01:02:37.905Z,70.50
2024-02-15T01:05:05.264Z,57.05
2024-02-15T01:07:32.937Z,59.42
2024-02-15T01:10:00.176Z,49.53
2024-02-15T01:12:27.089Z,47.20
2024-02-15T01:14:54.089Z,44.88
2024-02-15T01:17:20.922Z,51.50
2024-02-15T01:19:48.284Z,44.63
2024-02-15T01:22:15.172Z,44.25
2024-02-15T01:24:43.073Z,48.90
2024-02-15T01:27:10.832Z,49.50
2024-02-15T01:29:37.836Z,44.08
2024-02-15T01:32:06.647Z,44.67
2024-02-15T01:34:33.870Z,46.33
2024-02-15T01:37:01.448Z,41.40
2024-02-15T01:39:28.523Z,53.05
2024-02-15T01:41:57.501Z,44.05
2024-02-15T01:44:25.930Z,43.78
2024-02-15T01:46:55.942Z,39.85
2024-02-15T01:49:24.187Z,51.78
2024-02-15T01:51:53.426Z,40.08
2024-02-15T01:54:21.304Z,43.67
2024-02-15T01:56:49.243Z,43.17
2024-02-15T01:59:17.625Z,45.17
2024-02-15T02:01:46.116Z,46.88
2024-02-15T02:04:13.813Z,43.95
2024-02-15T02:06:41.765Z,45.22
2024-02-15T02:09:16.409Z,39.58
2024-02-15T02:11:46.407Z,40.63
2024-02-15T02:14:13.772Z,40.25
2024-02-15T02:16:40.807Z,44.22
2024-02-15T02:19:10.274Z,51.08
2024-02-15T02:21:39.857Z,45.97
2024-02-15T02:24:18.336Z,55.55
2024-02-15T02:26:45.537Z,43.40
2024-02-15T02:29:12.480Z,41.42
2024-02-15T02:31:39.630Z,41.65
2024-02-15T02:34:08.971Z,41.20
2024-02-15T02:36:37.454Z,47.65
2024-02-15T02:39:04.520Z,46.05
2024-02-15T02:41:31.533Z,46.72
2024-02-15T02:43:58.992Z,44.20
2024-02-15T02:46:25.965Z,48.50
2024-02-15T02:48:53.115Z,45.88
2024-02-15T02:51:20.645Z,45.72
2024-02-15T02:53:47.877Z,48.65
2024-02-15T02:56:15.980Z,39.90
2024-02-15T02:58:45.686Z,42.33
2024-02-15T03:01:12.957Z,36.97
2024-02-15T03:03:40.926Z,33.67
2024-02-15T03:08:35.421Z,37.15
2024-02-15T03:11:02.975Z,30.90
2024-02-15T03:13:30.468Z,33.53
2024-02-15T03:15:57.457Z,46.60
2024-02-15T03:18:24.646Z,42.05
2024-02-15T03:20:51.763Z,29.88
2024-02-15T03:23:18.642Z,38.25
2024-02-15T03:25:45.540Z,37.80
2024-02-15T03:28:12.425Z,38.85
2024-02-15T03:30:39.304Z,41.95
2024-02-15T03:33:07.667Z,44.78
2024-02-15T03:35:35.560Z,38.97
2024-02-15T03:38:02.562Z,41.13
2024-02-15T03:40:31.706Z,40.88
2024-02-15T03:42:59.385Z,35.47
2024-02-15T03:45:27.708Z,45.53
2024-02-15T03:47:56.787Z,37.03
2024-02-15T03:50:24.481Z,44.08
2024-02-15T03:52:52.150Z,39.75
2024-02-15T03:55:19.968Z,38.67
2024-02-15T03:57:48.860Z,42.08
2024-02-15T04:00:16.636Z,40.85
2024-02-15T04:02:44.933Z,45.05
2024-02-15T04:05:13.514Z,35.35
2024-02-15T04:07:40.673Z,48.75
2024-02-15T04:10:09.636Z,73.57
2024-02-15T04:12:49.556Z,43.03
2024-02-15T04:15:18.963Z,43.70
2024-02-15T04:17:47.164Z,39.40
2024-02-15T04:20:16.613Z,38.10
2024-02-15T04:22:44.809Z,45.50
2024-02-15T04:25:12.670Z,42.70
2024-02-15T04:27:40.373Z,56.17
2024-02-15T04:30:09.183Z,47.92
2024-02-15T04:32:37.895Z,39.60
2024-02-15T04:35:08.264Z,44.13
2024-02-15T04:37:37.693Z,45.20
2024-02-15T04:40:11.669Z,43.40
2024-02-15T04:42:46.300Z,45.15
2024-02-15T04:45:16.291Z,42.28
2024-02-15T04:47:58.300Z,42.65
2024-02-15T04:50:27.089Z,43.08
2024-02-15T04:52:55.930Z,41.63
2024-02-15T04:55:24.031Z,40.70
2024-02-15T04:57:56.242Z,35.50
2024-02-15T05:00:24.429Z,33.33
2024-02-15T05:02:51.458Z,34.83
2024-02-15T05:05:19.094Z,39.80
2024-02-15T05:07:45.982Z,34.30
2024-02-15T05:10:15.739Z,36.60
2024-02-15T05:12:43.852Z,36.42
2024-02-15T05:15:12.954Z,37.05
2024-02-15T05:17:44.992Z,33.78
2024-02-15T05:20:13.997Z,30.95
2024-02-15T05:22:48.930Z,30.55
2024-02-15T05:25:23.398Z,34.30
2024-02-15T05:27:50.579Z,29.27
2024-02-15T05:30:17.488Z,29.80
2024-02-15T05:32:46.801Z,33.13
2024-02-15T05:35:14.197Z,29.75
2024-02-15T05:37:41.116Z,32.00
2024-02-15T05:40:16.570Z,24.42
2024-02-15T05:42:46.716Z,28.13
2024-02-15T05:45:36.067Z,27.60
2024-02-15T05:48:07.706Z,29.52
2024-02-15T05:50:37.348Z,30.60
2024-02-15T05:53:05.099Z,28.35
2024-02-15T05:55:35.023Z,25.75
2024-02-15T05:58:03.772Z,26.40
2024-02-15T06:00:32.108Z,29.48
2024-02-15T06:02:59.606Z,45.38
2024-02-15T06:05:27.789Z,29.00
2024-02-15T06:07:54.782Z,28.60
2024-02-15T06:10:21.759Z,31.30
2024-02-15T06:12:48.658Z,30.80
2024-02-15T06:15:17.785Z,30.55
2024-02-15T06:17:48.329Z,32.25
2024-02-15T06:20:19.207Z,124.93
2024-02-15T06:22:47.851Z,59.00
2024-02-15T06:25:16.573Z,44.90
2024-02-15T06:27:44.056Z,38.55
2024-02-15T06:30:31.252Z,38.50
2024-02-15T06:33:17.858Z,61.80
2024-02-15T06:36:05.179Z,56.58
2024-02-15T06:38:51.684Z,44.50
2024-02-15T06:41:21.610Z,64.25
2024-02-15T06:43:49.585Z,38.70
2024-02-15T06:46:16.511Z,41.58
2024-02-15T06:48:45.918Z,41.80
2024-02-15T06:51:19.046Z,52.75
2024-02-15T06:53:46.274Z,38.45
2024-02-15T06:56:15.284Z,37.83
2024-02-15T06:58:42.847Z,34.72
2024-02-15T07:01:10.913Z,52.42
2024-02-15T07:03:38.562Z,45.53
2024-02-15T07:06:05.775Z,38.65
2024-02-15T07:08:33.117Z,45.45
2024-02-15T07:10:59.985Z,53.78
2024-02-15T07:13:28.210Z,41.63
2024-02-15T07:15:55.227Z,42.05
2024-02-15T07:18:27.778Z,43.03
2024-02-15T07:21:00.728Z,42.60
2024-02-15T07:23:29.139Z,39.70
2024-02-15T07:25:56.221Z,38.67
2024-02-15T07:28:23.315Z,42.85
2024-02-15T07:30:53.600Z,43.42
2024-02-15T07:33:22.168Z,48.00
2024-02-15T07:35:54.757Z,54.03
2024-02-15T07:38:26.768Z,49.95
2024-02-15T07:40:55.055Z,41.28
2024-02-15T07:43:22.016Z,47.30
2024-02-15T07:45:50.566Z,37.33
2024-02-15T07:48:17.824Z,32.95
2024-02-15T07:50:46.320Z,37.03
2024-02-15T07:53:13.310Z,38.80
2024-02-15T07:55:42.899Z,43.35
2024-02-15T07:58:09.944Z,39.83
2024-02-15T08:00:39.381Z,48.25
2024-02-15T08:03:06.569Z,39.53
2024-02-15T08:05:35.023Z,42.00
2024-02-15T08:08:02.071Z,35.35
2024-02-15T08:10:30.113Z,35.33
2024-02-15T08:12:59.536Z,42.20
2024-02-15T08:15:29.204Z,32.15
2024-02-15T08:17:56.733Z,42.80
2024-02-15T08:20:24.251Z,37.08
2024-02-15T08:22:51.351Z,45.88
2024-02-15T08:25:19.363Z,37.70
2024-02-15T08:27:53.391Z,46.60
2024-02-15T08:30:24.044Z,47.53
2024-02-15T08:32:55.960Z,41.90
2024-02-15T08:35:23.881Z,51.10
2024-02-15T08:37:53.346Z,37.97
2024-02-15T08:40:26.929Z,35.40
2024-02-15T08:42:54.248Z,51.22
2024-02-15T08:45:21.951Z,38.45
2024-02-15T08:47:51.326Z,35.47
2024-02-15T08:50:18.673Z,35.63
2024-02-15T08:52:46.084Z,33.97
2024-02-15T08:55:15.729Z,37.65
2024-02-15T08:57:45.132Z,51.30
2024-02-15T09:00:17.627Z,34.78
2024-02-15T09:02:46.352Z,37.77
2024-02-15T09:05:18.570Z,34.55
2024-02-15T09:07:48.968Z,27.08
2024-02-15T09:10:18.381Z,32.13
2024-02-15T09:12:48.695Z,31.25
2024-02-15T09:15:16.418Z,32.55
2024-02-15T09:17:44.807Z,33.50
2024-02-15T09:20:17.061Z,43.00
2024-02-15T09:22:45.580Z,29.05
2024-02-15T09:25:14.275Z,27.23
2024-02-15T09:27:42.898Z,29.25
2024-02-15T09:30:11.027Z,32.55
2024-02-15T09:32:38.413Z,31.88
2024-02-15T09:35:09.255Z,39.53
2024-02-15T09:37:39.948Z,40.58
2024-02-15T09:40:11.390Z,35.80
2024-02-15T09:42:41.618Z,36.03
2024-02-15T09:45:12.373Z,42.03
2024-02-15T09:47:43.280Z,36.10
2024-02-15T09:50:15.749Z,37.33
2024-02-15T09:52:47.084Z,38.95
2024-02-15T09:55:15.860Z,33.95
2024-02-15T09:57:48.014Z,36.15
2024-02-15T10:00:17.152Z,34.70
2024-02-15T10:02:49.007Z,42.42
2024-02-15T10:05:19.867Z,34.45
2024-02-15T10:07:48.079Z,32.15
2024-02-15T10:10:22.274Z,36.85
2024-02-15T10:15:37.695Z,32.72
2024-02-15T10:18:09.042Z,36.25
2024-02-15T10:20:38.586Z,37.28
2024-02-15T10:23:10.312Z,33.33
2024-02-15T10:25:39.927Z,40.80
2024-02-15T10:28:08.583Z,51.15
2024-02-15T10:30:46.974Z,36.80
2024-02-15T10:33:26.967Z,34.83
2024-02-15T10:36:10.332Z,35.88
2024-02-15T10:38:37.899Z,46.55
2024-02-15T10:41:06.542Z,37.22
2024-02-15T10:43:39.302Z,38.88
2024-02-15T10:46:11.025Z,47.85
2024-02-15T10:48:39.532Z,40.45
2024-02-15T10:51:11.730Z,41.70
2024-02-15T10:53:46.790Z,40.00
2024-02-15T10:56:21.012Z,37.88
2024-02-15T10:58:51.875Z,40.00
2024-02-15T11:01:58.743Z,35.85
2024-02-15T11:04:33.424Z,62.53
2024-02-15T11:07:03.443Z,43.15
2024-02-15T11:09:31.004Z,43.65
2024-02-15T11:11:58.452Z,47.72
2024-02-15T11:14:29.926Z,45.47
2024-02-15T11:16:58.795Z,41.70
2024-02-15T11:19:40.391Z,42.85
2024-02-15T11:22:13.207Z,38.83
2024-02-15T11:24:49.630Z,40.33
2024-02-15T11:27:29.774Z,46.92
2024-02-15T11:29:59.801Z,41.13
2024-02-15T11:32:46.833Z,42.85
2024-02-15T11:35:19.217Z,47.55
2024-02-15T11:37:49.065Z,41.88
2024-02-15T11:40:18.294Z,42.22
2024-02-15T11:42:45.979Z,50.03
2024-02-15T11:45:13.947Z,50.25
2024-02-15T11:47:50.061Z,39.50
2024-02-15T11:50:19.418Z,40.42
2024-02-15T11:52:47.487Z,45.85
2024-02-15T11:55:14.570Z,40.85
2024-02-15T11:57:52.087Z,46.97
2024-02-15T12:00:44.644Z,46.45
2024-02-15T12:03:33.151Z,53.40
2024-02-15T12:06:20.221Z,49.13
2024-02-15T12:09:07.016Z,54.13
2024-02-15T12:11:53.956Z,49.88
2024-02-15T12:14:39.747Z,51.78
2024-02-15T12:17:27.597Z,46.90
2024-02-15T12:19:56.942Z,41.88
2024-02-15T12:22:28.654Z,49.40
2024-02-15T12:24:59.794Z,53.40
2024-02-15T12:27:28.395Z,47.50
2024-02-15T12:29:59.048Z,42.75
2024-02-15T12:32:28.164Z,65.15
2024-02-15T12:35:23.939Z,43.10
2024-02-15T12:38:06.535Z,48.72
2024-02-15T12:40:41.289Z,45.80
2024-02-15T12:43:11.013Z,66.93
2024-02-15T12:45:39.868Z,55.20
2024-02-15T12:48:08.416Z,41.92
2024-02-15T12:50:36.252Z,53.70
2024-02-15T12:53:04.262Z,52.42
2024-02-15T12:55:35.611Z,48.83
2024-02-15T12:58:05.267Z,51.47
2024-02-15T13:00:34.964Z,54.65
2024-02-15T13:03:05.144Z,43.35
2024-02-15T13:05:33.563Z,45.88
2024-02-15T13:08:02.472Z,45.53
2024-02-15T13:10:30.863Z,42.45
2024-02-15T13:12:58.778Z,50.15
2024-02-15T13:15:34.802Z,43.00
2024-02-15T13:18:05.835Z,45.30
2024-02-15T13:20:35.454Z,43.88
2024-02-15T13:23:15.985Z,45.17
2024-02-15T13:25:44.967Z,49.17
2024-02-15T13:28:14.626Z,42.60
2024-02-15T13:30:44.961Z,47.00
2024-02-15T13:33:18.066Z,45.72
2024-02-15T13:35:45.651Z,49.63
2024-02-15T13:38:16.605Z,49.97
2024-02-15T13:40:45.792Z,48.42
2024-02-15T13:43:13.223Z,52.15
2024-02-15T13:45:42.595Z,52.22
2024-02-15T13:48:11.035Z,45.28
2024-02-15T13:50:40.456Z,48.05
2024-02-15T13:53:08.033Z,55.95
2024-02-15T13:55:37.424Z,51.92
2024-02-15T13:58:04.530Z,62.55
2024-02-15T14:00:35.451Z,54.20
2024-02-15T14:03:04.457Z,47.58
2024-02-15T14:05:32.017Z,56.38
2024-02-15T14:08:02.879Z,49.92
2024-02-15T14:10:32.236Z,48.72
2024-02-15T14:12:59.742Z,44.13
2024-02-15T14:15:27.189Z,54.30
2024-02-15T14:17:56.874Z,44.25
2024-02-15T14:20:24.517Z,51.35
2024-02-15T14:22:58.676Z,41.15
2024-02-15T14:25:27.226Z,47.88
2024-02-15T14:27:58.513Z,53.53
2024-02-15T14:30:45.484Z,55.60
2024-02-15T14:33:22.003Z,47.75
2024-02-15T14:35:51.626Z,49.60
2024-02-15T14:38:20.691Z,51.03
2024-02-15T14:40:57.266Z,60.90
2024-02-15T14:43:28.074Z,49.03
2024-02-15T14:45:58.043Z,47.20
2024-02-15T14:48:26.388Z,43.97
2024-02-15T14:50:57.356Z,47.65
2024-02-15T14:53:25.335Z,54.85
2024-02-15T14:55:53.095Z,49.25
2024-02-15T14:58:23.394Z,49.88
2024-02-15T15:00:51.035Z,57.03
2024-02-15T15:03:18.626Z,51.50
2024-02-15T15:06:05.356Z,56.30
2024-02-15T15:08:52.592Z,50.50
2024-02-15T15:11:38.463Z,50.78
2024-02-15T15:14:07.273Z,50.60
2024-02-15T15:16:35.301Z,63.45
2024-02-15T15:19:03.630Z,54.70
2024-02-15T15:21:30.720Z,62.58
2024-02-15T15:23:58.085Z,65.80
2024-02-15T15:26:25.549Z,54.97
2024-02-15T15:28:52.633Z,48.38
2024-02-15T15:31:22.589Z,51.75
2024-02-15T15:33:54.096Z,66.75
2024-02-15T15:36:23.178Z,47.40
2024-02-15T15:38:51.760Z,51.28
2024-02-15T15:41:19.678Z,150.23
2024-02-15T15:43:47.378Z,128.23
2024-02-15T15:46:17.326Z,100.30
2024-02-15T15:48:47.279Z,58.63
2024-02-15T15:51:15.938Z,60.65
2024-02-15T15:53:46.369Z,59.47
2024-02-15T15:56:17.955Z,63.85
2024-02-15T15:58:46.698Z,62.72
2024-02-15T16:01:14.916Z,53.72
2024-02-15T16:03:42.563Z,57.65
2024-02-15T16:06:09.794Z,62.22
2024-02-15T16:08:37.339Z,67.55
2024-02-15T16:11:07.858Z,71.22
2024-02-15T16:13:35.964Z,67.82
2024-02-15T16:16:05.225Z,62.72
2024-02-15T16:18:32.700Z,54.42
2024-02-15T16:20:59.868Z,56.67
2024-02-15T16:23:26.866Z,59.55
2024-02-15T16:25:53.952Z,52.83
2024-02-15T16:28:21.686Z,55.85
2024-02-15T16:30:49.724Z,59.80
2024-02-15T16:33:17.370Z,57.05
2024-02-15T16:35:44.806Z,55.35
2024-02-15T16:38:11.866Z,54.30
2024-02-15T16:40:38.894Z,66.38
2024-02-15T16:43:06.189Z,58.35
2024-02-15T16:45:34.728Z,61.83
2024-02-15T16:48:05.343Z,56.53
2024-02-15T16:50:32.877Z,60.35
2024-02-15T16:53:00.866Z,73.93
2024-02-15T16:55:33.056Z,63.60
2024-02-15T16:58:05.018Z,64.65
2024-02-15T17:00:33.606Z,63.17
2024-02-15T17:03:01.006Z,65.22
2024-02-15T17:05:29.599Z,72.30
2024-02-15T17:08:01.147Z,64.28
2024-02-15T17:10:29.608Z,63.05
2024-02-15T17:12:56.619Z,83.47
2024-02-15T17:15:27.359Z,68.72
2024-02-15T17:17:55.623Z,81.63
2024-02-15T17:20:24.610Z,63.05
2024-02-15T17:22:53.818Z,62.00
2024-02-15T17:25:25.632Z,76.20
2024-02-15T17:27:56.938Z,110.45
2024-02-15T17:30:24.959Z,83.88
2024-02-15T17:32:52.224Z,83.40
2024-02-15T17:35:20.521Z,92.38
2024-02-15T17:37:47.508Z,106.45
2024-02-15T17:40:15.180Z,105.53
2024-02-15T17:42:43.872Z,113.63
2024-02-15T17:45:13.044Z,85.32
2024-02-15T17:47:41.583Z,88.10
2024-02-15T17:50:11.634Z,84.40
2024-02-15T17:52:38.806Z,91.95
2024-02-15T17:55:10.140Z,103.32
2024-02-15T17:57:40.635Z,106.45
2024-02-15T18:00:17.987Z,106.13
2024-02-15T18:02:50.014Z,106.18
2024-02-15T18:05:20.339Z,115.65
2024-02-15T18:07:48.346Z,108.00
2024-02-15T18:10:18.267Z,92.93
2024-02-15T18:12:45.194Z,98.28
2024-02-15T18:15:19.957Z,113.35
2024-02-15T18:17:47.963Z,89.47
2024-02-15T18:20:16.665Z,88.93
2024-02-15T18:22:45.530Z,79.43
2024-02-15T18:25:12.556Z,78.00
2024-02-15T18:27:39.879Z,85.07
2024-02-15T18:30:14.185Z,85.38
2024-02-15T18:32:41.911Z,82.55
2024-02-15T18:35:13.935Z,84.32
2024-02-15T18:37:42.540Z,95.40
2024-02-15T18:40:17.865Z,77.10
2024-02-15T18:42:51.618Z,87.85
2024-02-15T18:45:19.404Z,97.88
2024-02-15T18:47:46.938Z,86.10
2024-02-15T18:50:14.269Z,84.82
2024-02-15T18:52:42.198Z,111.15
2024-02-15T18:55:11.841Z,100.10
2024-02-15T18:57:39.060Z,98.18
2024-02-15T19:00:20.668Z,97.38
2024-02-15T19:02:58.438Z,87.43
2024-02-15T19:05:26.662Z,79.05
2024-02-15T19:07:54.658Z,103.95
2024-02-15T19:10:22.992Z,114.85
2024-02-15T19:12:53.508Z,136.13
2024-02-15T19:15:21.201Z,130.25
2024-02-15T19:17:48.613Z,110.18
2024-02-15T19:20:17.040Z,92.53
2024-02-15T19:22:44.206Z,99.55
2024-02-15T19:25:19.132Z,108.35
2024-02-15T19:27:46.978Z,104.70
2024-02-15T19:30:14.544Z,93.60
2024-02-15T19:32:42.348Z,115.10
2024-02-15T19:35:09.678Z,130.95
2024-02-15T19:37:36.861Z,106.40
2024-02-15T19:40:08.750Z,94.82
2024-02-15T19:42:36.877Z,114.72
2024-02-15T19:45:04.348Z,108.38
2024-02-15T19:47:32.492Z,98.72
2024-02-15T19:49:59.542Z,92.93
2024-02-15T19:52:26.894Z,101.38
2024-02-15T19:54:53.944Z,99.15
2024-02-15T19:57:21.326Z,106.05
2024-02-15T19:59:49.747Z,106.18
2024-02-15T20:02:17.643Z,93.45
2024-02-15T20:04:46.265Z,93.13
2024-02-15T20:07:13.506Z,82.78
2024-02-15T20:09:47.036Z,77.97
2024-02-15T20:12:15.795Z,98.85
2024-02-15T20:14:43.515Z,100.85
2024-02-15T20:17:11.895Z,90.50
2024-02-15T20:19:39.950Z,87.53
2024-02-15T20:22:10.394Z,85.75
2024-02-15T20:24:40.420Z,87.78
2024-02-15T20:27:07.557Z,84.00
2024-02-15T20:29:36.770Z,91.35
2024-02-15T20:32:05.867Z,75.60
2024-02-15T20:34:36.924Z,86.32
2024-02-15T20:37:05.465Z,75.32
2024-02-15T20:39:36.589Z,77.82
2024-02-15T20:42:04.196Z,94.40
2024-02-15T20:44:31.509Z,95.30
2024-02-15T20:46:58.568Z,89.57
2024-02-15T20:49:26.305Z,87.30
2024-02-15T20:51:53.302Z,79.78
2024-02-15T20:54:22.199Z,82.97
2024-02-15T20:56:50.781Z,72.53
2024-02-15T20:59:18.763Z,72.22
2024-02-15T21:01:45.766Z,72.90
2024-02-15T21:04:13.737Z,89.28
2024-02-15T21:06:41.397Z,82.40
2024-02-15T21:09:15.372Z,89.50
2024-02-15T21:11:46.658Z,77.95
2024-02-15T21:14:16.562Z,81.45
2024-02-15T21:16:44.140Z,81.07
2024-02-15T21:19:12.228Z,79.50
2024-02-15T21:21:45.372Z,74.72
2024-02-15T21:24:12.953Z,91.65
2024-02-15T21:26:44.079Z,103.75
2024-02-15T21:29:13.530Z,102.85
2024-02-15T21:31:40.510Z,85.22
2024-02-15T21:34:10.463Z,82.18
2024-02-15T21:36:37.737Z,79.65
2024-02-15T21:39:06.559Z,93.55
2024-02-15T21:41:35.968Z,80.03
2024-02-15T21:44:03.348Z,68.95
2024-02-15T21:46:30.422Z,83.72
2024-02-15T21:48:57.596Z,77.90
2024-02-15T21:51:24.901Z,67.35
2024-02-15T21:53:52.241Z,76.35
2024-02-15T21:56:20.264Z,77.25
2024-02-15T21:58:48.459Z,79.82
2024-02-15T22:01:16.692Z,76.00
2024-02-15T22:03:44.040Z,77.30
2024-02-15T22:06:12.637Z,89.68
2024-02-15T22:08:42.505Z,94.90
2024-02-15T22:11:11.919Z,75.95
2024-02-15T22:13:39.549Z,82.35
2024-02-15T22:16:08.902Z,80.65
2024-02-15T22:18:36.197Z,74.15
2024-02-15T22:21:04.377Z,81.20
2024-02-15T22:23:32.108Z,77.90
2024-02-15T22:25:59.176Z,82.05
2024-02-15T22:28:26.121Z,76.30
2024-02-15T22:30:53.019Z,80.15
2024-02-15T22:33:22.671Z,78.35
2024-02-15T22:35:50.382Z,66.03
2024-02-15T22:38:17.480Z,63.25
2024-02-15T22:40:44.482Z,66.20
2024-02-15T22:43:14.485Z,70.45
2024-02-15T22:45:42.235Z,72.45
2024-02-15T22:48:09.394Z,64.30
2024-02-15T22:50:37.614Z,68.72
2024-02-15T22:53:04.639Z,72.22
2024-02-15T22:55:31.563Z,67.38
2024-02-15T22:57:59.174Z,65.68
2024-02-15T23:00:27.791Z,67.63
2024-02-15T23:02:55.307Z,60.92
2024-02-15T23:05:23.678Z,71.75
2024-02-15T23:07:51.744Z,62.88
2024-02-15T23:10:19.054Z,63.92
2024-02-15T23:12:46.131Z,64.22
2024-02-15T23:15:16.431Z,64.30
2024-02-15T23:17:43.736Z,63.72
2024-02-15T23:20:13.265Z,64.88
2024-02-15T23:22:43.267Z,59.47
2024-02-15T23:25:10.501Z,69.22
2024-02-15T23:27:37.587Z,68.63
2024-02-15T23:30:06.034Z,68.50
2024-02-15T23:32:36.206Z,71.32
2024-02-15T23:35:04.653Z,73.50
2024-02-15T23:37:51.813Z,75.80
2024-02-15T23:40:25.778Z,71.38
2024-02-15T23:42:54.293Z,72.85
2024-02-15T23:45:21.994Z,73.85
2024-02-15T23:47:49.364Z,83.90
2024-02-15T23:50:17.314Z,76.45
2024-02-15T23:52:46.931Z,75.18
2024-02-15T23:55:15.459Z,84.18
2024-02-15T23:57:47.275Z,89.00
